createdAt,value
2022-08-07T00:00:49.228Z,70.45
2022-08-07T00:02:36.495Z,70.47
2022-08-07T00:03:17.181Z,70.40
2022-08-07T00:04:24.702Z,70.31
2022-08-07T00:05:30.672Z,70.23
2022-08-07T00:06:35.209Z,70.18
2022-08-07T00:07:40.603Z,70.23
2022-08-07T00:08:44.638Z,70.18
2022-08-07T00:10:04.708Z,70.28
2022-08-07T00:11:11.384Z,70.29
2022-08-07T00:12:19.197Z,70.24
2022-08-07T00:13:23.973Z,70.32
2022-08-07T00:14:31.650Z,70.18
2022-08-07T00:15:36.049Z,70.19
2022-08-07T00:16:41.794Z,70.10
2022-08-07T00:17:45.641Z,70.12
2022-08-07T00:18:52.246Z,70.02
2022-08-07T00:20:02.517Z,70.06
2022-08-07T00:21:56.148Z,69.91
2022-08-07T00:22:35.176Z,69.93
2022-08-07T00:23:41.061Z,69.99
2022-08-07T00:24:44.361Z,69.82
2022-08-07T00:25:59.086Z,69.85
2022-08-07T00:27:07.270Z,69.85
2022-08-07T00:28:12.427Z,69.87
2022-08-07T00:29:20.067Z,69.83
2022-08-07T00:30:28.576Z,69.78
2022-08-07T00:31:37.965Z,69.77
2022-08-07T00:32:44.554Z,69.73
2022-08-07T00:33:48.568Z,69.80
2022-08-07T00:34:55.266Z,69.79
2022-08-07T00:35:58.597Z,69.72
2022-08-07T00:37:05.047Z,69.75
2022-08-07T00:38:08.506Z,69.69
2022-08-07T00:39:17.164Z,69.59
2022-08-07T00:40:39.210Z,69.69
2022-08-07T00:42:02.064Z,69.71
2022-08-07T00:44:01.433Z,69.58
2022-08-07T00:44:38.404Z,69.63
2022-08-07T00:45:46.447Z,69.57
2022-08-07T00:46:51.094Z,69.60
2022-08-07T00:48:08.187Z,69.57
2022-08-07T00:50:16.774Z,69.64
2022-08-07T00:50:50.929Z,69.58
2022-08-07T00:51:57.348Z,69.52
2022-08-07T00:53:01.836Z,69.54
2022-08-07T00:54:05.763Z,69.18
2022-08-07T00:55:10.613Z,69.29
2022-08-07T00:56:15.885Z,69.27
2022-08-07T00:57:19.479Z,69.22
2022-08-07T00:58:22.812Z,69.14
2022-08-07T00:59:32.710Z,69.11
2022-08-07T01:00:38.808Z,69.06
2022-08-07T01:01:57.994Z,69.07
2022-08-07T01:03:01.418Z,69.27
2022-08-07T01:04:07.315Z,69.11
2022-08-07T01:05:18.850Z,69.05
2022-08-07T01:06:22.735Z,69.05
2022-08-07T01:07:28.089Z,69.11
2022-08-07T01:08:32.976Z,69.13
2022-08-07T01:10:05.125Z,69.22
2022-08-07T01:11:00.691Z,69.22
2022-08-07T01:12:29.690Z,69.15
2022-08-07T01:13:35.173Z,69.12
2022-08-07T01:14:41.272Z,69.07
2022-08-07T01:16:01.031Z,69.02
2022-08-07T01:17:09.649Z,69.05
2022-08-07T01:18:16.628Z,69.16
2022-08-07T01:19:21.908Z,69.23
2022-08-07T01:20:33.877Z,69.40
2022-08-07T01:21:49.514Z,69.40
2022-08-07T01:23:09.027Z,69.63
2022-08-07T01:24:21.264Z,69.65
2022-08-07T01:25:54.277Z,69.88
2022-08-07T01:26:51.858Z,69.96
2022-08-07T01:27:56.719Z,70.03
2022-08-07T01:29:03.099Z,70.13
2022-08-07T01:30:10.851Z,70.08
2022-08-07T01:31:17.858Z,70.15
2022-08-07T01:32:22.299Z,70.29
2022-08-07T01:33:30.122Z,70.20
2022-08-07T01:34:50.706Z,70.16
2022-08-07T01:36:06.224Z,70.30
2022-08-07T01:37:13.847Z,70.18
2022-08-07T01:38:25.138Z,70.21
2022-08-07T01:39:41.350Z,70.14
2022-08-07T01:40:51.423Z,70.11
2022-08-07T01:42:37.993Z,70.09
2022-08-07T01:43:19.674Z,69.88
2022-08-07T01:44:23.077Z,69.99
2022-08-07T01:45:37.144Z,69.80
2022-08-07T01:46:45.031Z,69.59
2022-08-07T01:48:20.175Z,69.56
2022-08-07T01:49:15.516Z,69.40
2022-08-07T01:50:22.746Z,69.41
2022-08-07T01:52:01.960Z,69.21
2022-08-07T01:52:58.576Z,69.31
2022-08-07T01:54:12.299Z,69.22
2022-08-07T01:55:22.209Z,69.11
2022-08-07T01:56:32.844Z,69.20
2022-08-07T01:58:06.944Z,69.04
2022-08-07T01:59:30.964Z,69.11
2022-08-07T02:00:45.267Z,69.00
2022-08-07T02:02:06.015Z,69.01
2022-08-07T02:03:21.320Z,68.89
2022-08-07T02:04:55.806Z,68.94
2022-08-07T02:06:20.020Z,68.84
2022-08-07T02:07:44.689Z,68.91
2022-08-07T02:08:54.163Z,68.86
2022-08-07T02:09:59.252Z,68.85
2022-08-07T02:11:04.400Z,68.82
2022-08-07T02:12:17.625Z,68.70
2022-08-07T02:13:56.415Z,68.68
2022-08-07T02:14:52.973Z,68.69
2022-08-07T02:16:00.498Z,68.79
2022-08-07T02:17:06.168Z,68.80
2022-08-07T02:18:14.293Z,68.67
2022-08-07T02:20:04.819Z,68.62
2022-08-07T02:20:52.021Z,68.56
2022-08-07T02:22:02.746Z,68.59
2022-08-07T02:23:07.904Z,68.71
2022-08-07T02:24:13.527Z,68.70
2022-08-07T02:26:10.770Z,68.75
2022-08-07T02:26:49.174Z,68.74
2022-08-07T02:27:53.170Z,68.89
2022-08-07T02:28:57.904Z,68.85
2022-08-07T02:30:03.907Z,68.95
2022-08-07T02:31:28.798Z,68.94
2022-08-07T02:32:36.421Z,69.02
2022-08-07T02:34:01.705Z,68.91
2022-08-07T02:35:09.348Z,68.90
2022-08-07T02:36:30.917Z,69.01
2022-08-07T02:37:43.848Z,69.01
2022-08-07T02:38:50.644Z,69.04
2022-08-07T02:40:29.793Z,69.10
2022-08-07T02:41:33.333Z,69.03
2022-08-07T02:42:41.847Z,69.04
2022-08-07T02:43:47.653Z,69.11
2022-08-07T02:44:53.949Z,69.16
2022-08-07T02:46:03.815Z,69.17
2022-08-07T02:47:08.262Z,69.26
2022-08-07T02:48:23.253Z,69.24
2022-08-07T02:49:28.633Z,69.23
2022-08-07T02:50:54.906Z,69.16
2022-08-07T02:52:01.799Z,69.14
2022-08-07T02:53:12.310Z,69.25
2022-08-07T02:54:18.063Z,69.27
2022-08-07T02:55:28.645Z,69.19
2022-08-07T02:56:52.222Z,69.20
2022-08-07T02:57:59.785Z,69.30
2022-08-07T02:59:08.855Z,69.20
2022-08-07T03:00:16.227Z,69.22
2022-08-07T03:01:35.443Z,69.17
2022-08-07T03:02:55.014Z,69.11
2022-08-07T03:04:03.326Z,69.08
2022-08-07T03:05:11.985Z,69.17
2022-08-07T03:06:33.312Z,69.25
2022-08-07T03:07:43.253Z,69.30
2022-08-07T03:09:07.769Z,69.28
2022-08-07T03:10:20.268Z,69.30
2022-08-07T03:11:28.209Z,69.51
2022-08-07T03:12:32.830Z,69.39
2022-08-07T03:13:39.185Z,69.44
2022-08-07T03:14:53.978Z,69.31
2022-08-07T03:15:58.358Z,69.31
2022-08-07T03:17:04.478Z,69.27
2022-08-07T03:18:08.576Z,69.17
2022-08-07T03:19:12.453Z,69.15
2022-08-07T03:20:17.528Z,69.06
2022-08-07T03:21:21.069Z,69.01
2022-08-07T03:22:30.200Z,69.00
2022-08-07T03:24:25.892Z,68.92
2022-08-07T03:25:02.114Z,68.97
2022-08-07T03:26:07.023Z,69.02
2022-08-07T03:27:30.658Z,68.95
2022-08-07T03:28:44.133Z,69.01
2022-08-07T03:29:51.052Z,69.00
2022-08-07T03:31:16.998Z,68.96
2022-08-07T03:32:25.389Z,69.00
2022-08-07T03:33:40.116Z,68.95
2022-08-07T03:35:16.624Z,68.92
2022-08-07T03:36:16.775Z,68.86
2022-08-07T03:37:22.063Z,68.84
2022-08-07T03:38:33.282Z,68.82
2022-08-07T03:39:59.055Z,68.75
2022-08-07T03:41:02.553Z,68.88
2022-08-07T03:42:07.668Z,68.82
2022-08-07T03:43:13.838Z,68.91
2022-08-07T03:44:31.723Z,68.87
2022-08-07T03:45:43.295Z,68.81
2022-08-07T03:47:11.180Z,68.80
2022-08-07T03:48:11.530Z,68.89
2022-08-07T03:49:14.933Z,68.86
2022-08-07T03:50:23.314Z,68.85
2022-08-07T03:51:30.917Z,68.75
2022-08-07T03:52:52.571Z,68.77
2022-08-07T03:54:32.965Z,68.85
2022-08-07T03:55:19.850Z,68.74
2022-08-07T03:56:33.643Z,68.65
2022-08-07T03:58:34.730Z,68.55
2022-08-07T03:59:13.120Z,68.62
2022-08-07T04:00:17.874Z,68.61
2022-08-07T04:01:27.229Z,68.65
2022-08-07T04:02:31.207Z,68.67
2022-08-07T04:03:49.735Z,68.62
2022-08-07T04:04:57.589Z,68.67
2022-08-07T04:06:01.395Z,68.64
2022-08-07T04:07:16.690Z,68.68
2022-08-07T04:08:21.425Z,68.64
2022-08-07T04:09:25.839Z,68.75
2022-08-07T04:10:54.320Z,68.83
2022-08-07T04:12:28.488Z,68.90
2022-08-07T04:14:10.406Z,68.85
2022-08-07T04:14:58.589Z,68.75
2022-08-07T04:16:04.028Z,68.82
2022-08-07T04:17:20.207Z,68.59
2022-08-07T04:18:56.327Z,68.64
2022-08-07T04:19:51.996Z,68.57
2022-08-07T04:20:57.565Z,68.57
2022-08-07T04:22:08.653Z,68.61
2022-08-07T04:23:20.739Z,68.64
2022-08-07T04:24:34.195Z,68.68
2022-08-07T04:25:43.438Z,68.70
2022-08-07T04:26:46.677Z,68.69
2022-08-07T04:27:59.334Z,68.78
2022-08-07T04:29:06.362Z,68.80
2022-08-07T04:30:35.756Z,68.81
2022-08-07T04:32:03.052Z,68.92
2022-08-07T04:33:10.396Z,68.87
2022-08-07T04:34:24.328Z,68.92
2022-08-07T04:35:40.286Z,68.87
2022-08-07T04:36:45.350Z,68.88
2022-08-07T04:38:02.994Z,68.88
2022-08-07T04:39:10.994Z,68.86
2022-08-07T04:40:16.094Z,68.83
2022-08-07T04:41:22.990Z,68.86
2022-08-07T04:42:30.039Z,68.92
2022-08-07T04:44:09.846Z,68.85
2022-08-07T04:45:02.824Z,68.85
2022-08-07T04:46:25.824Z,68.90
2022-08-07T04:47:58.767Z,68.91
2022-08-07T04:49:24.658Z,68.89
2022-08-07T04:50:56.638Z,69.00
2022-08-07T04:52:03.531Z,68.90
2022-08-07T04:53:16.460Z,69.19
2022-08-07T04:54:58.104Z,69.05
2022-08-07T04:58:10.698Z,69.11
2022-08-07T04:59:15.839Z,69.22
2022-08-07T05:00:24.291Z,69.22
2022-08-07T05:01:46.963Z,69.43
2022-08-07T05:03:31.251Z,69.48
2022-08-07T05:04:58.500Z,69.42
2022-08-07T05:06:20.088Z,69.76
2022-08-07T05:07:48.489Z,69.60
2022-08-07T05:09:17.604Z,69.52
2022-08-07T05:11:07.473Z,69.80
2022-08-07T05:12:26.881Z,69.76
2022-08-07T05:14:53.106Z,69.69
2022-08-07T05:15:23.137Z,69.43
2022-08-07T05:16:31.850Z,69.59
2022-08-07T05:17:52.391Z,69.44
2022-08-07T05:19:03.967Z,69.36
2022-08-07T05:20:09.928Z,69.05
2022-08-07T05:21:14.966Z,69.01
2022-08-07T05:22:27.589Z,68.92
2022-08-07T05:23:37.778Z,68.93
2022-08-07T05:24:42.164Z,68.69
2022-08-07T05:26:10.435Z,68.51
2022-08-07T05:28:02.894Z,68.28
2022-08-07T05:28:46.662Z,68.08
2022-08-07T05:29:53.718Z,68.25
2022-08-07T05:31:00.193Z,68.25
2022-08-07T05:32:06.520Z,68.11
2022-08-07T05:33:13.755Z,67.82
2022-08-07T05:34:20.268Z,67.83
2022-08-07T05:35:33.158Z,67.78
2022-08-07T05:36:39.355Z,67.64
2022-08-07T05:37:43.429Z,67.47
2022-08-07T05:39:00.370Z,67.33
2022-08-07T05:40:18.769Z,67.39
2022-08-07T05:41:23.517Z,67.39
2022-08-07T05:42:34.759Z,67.40
2022-08-07T05:43:49.622Z,67.22
2022-08-07T05:45:25.664Z,67.40
2022-08-07T05:46:31.522Z,67.53
2022-08-07T05:47:38.391Z,67.76
2022-08-07T05:49:00.133Z,67.95
2022-08-07T05:50:04.238Z,68.03
2022-08-07T05:51:15.503Z,68.24
2022-08-07T05:52:29.885Z,68.25
2022-08-07T05:54:12.423Z,68.33
2022-08-07T05:55:06.831Z,68.24
2022-08-07T05:56:20.004Z,68.56
2022-08-07T05:57:38.047Z,68.56
2022-08-07T05:58:52.348Z,68.56
2022-08-07T05:59:58.357Z,68.60
2022-08-07T06:01:02.228Z,68.64
2022-08-07T06:02:15.973Z,68.69
2022-08-07T06:03:24.309Z,68.77
2022-08-07T06:04:33.814Z,68.80
2022-08-07T06:05:38.248Z,68.80
2022-08-07T06:06:46.410Z,68.85
2022-08-07T06:08:13.961Z,68.81
2022-08-07T06:09:18.016Z,68.93
2022-08-07T06:10:24.094Z,68.90
2022-08-07T06:11:27.464Z,68.90
2022-08-07T06:12:33.186Z,68.99
2022-08-07T06:14:10.820Z,69.09
2022-08-07T06:15:05.627Z,68.96
2022-08-07T06:16:13.385Z,68.89
2022-08-07T06:17:22.325Z,68.86
2022-08-07T06:18:27.938Z,68.72
2022-08-07T06:19:49.890Z,68.78
2022-08-07T06:22:14.542Z,68.79
2022-08-07T06:22:27.177Z,68.82
2022-08-07T06:24:37.079Z,68.69
2022-08-07T06:25:01.150Z,68.64
2022-08-07T06:26:06.834Z,68.53
2022-08-07T06:27:12.737Z,68.23
2022-08-07T06:28:27.553Z,68.24
2022-08-07T06:29:31.656Z,68.17
2022-08-07T06:30:41.466Z,68.17
2022-08-07T06:31:50.292Z,68.19
2022-08-07T06:32:53.874Z,68.20
2022-08-07T06:33:57.959Z,68.37
2022-08-07T06:35:01.729Z,68.41
2022-08-07T06:36:14.256Z,68.39
2022-08-07T06:37:44.012Z,67.90
2022-08-07T06:38:58.765Z,67.26
2022-08-07T06:40:20.518Z,65.97
2022-08-07T06:42:01.601Z,65.61
2022-08-07T06:42:54.353Z,65.07
2022-08-07T06:43:59.504Z,64.23
2022-08-07T06:45:18.306Z,63.53
2022-08-07T06:46:31.319Z,62.90
2022-08-07T06:47:57.647Z,62.96
2022-08-07T06:49:03.827Z,62.31
2022-08-07T06:50:11.352Z,61.58
2022-08-07T06:51:31.156Z,61.73
2022-08-07T06:52:39.659Z,61.12
2022-08-07T06:55:27.691Z,61.14
2022-08-07T06:55:32.353Z,60.56
2022-08-07T06:56:48.471Z,59.82
2022-08-07T06:57:57.088Z,60.82
2022-08-07T07:00:12.029Z,60.68
2022-08-07T07:00:45.340Z,60.28
2022-08-07T07:01:51.121Z,59.88
2022-08-07T07:02:57.643Z,59.92
2022-08-07T07:04:28.080Z,59.30
2022-08-07T07:06:02.762Z,59.17
2022-08-07T07:07:00.398Z,59.44
2022-08-07T07:08:06.945Z,58.89
2022-08-07T07:09:21.005Z,57.61
2022-08-07T07:10:31.092Z,57.65
2022-08-07T07:12:07.483Z,57.66
2022-08-07T07:13:15.014Z,56.79
2022-08-07T07:14:22.078Z,56.81
2022-08-07T07:15:35.778Z,56.28
2022-08-07T07:16:50.022Z,55.84
2022-08-07T07:18:08.977Z,56.21
2022-08-07T07:19:55.948Z,56.15
2022-08-07T07:20:53.747Z,54.73
2022-08-07T07:22:05.191Z,53.08
2022-08-07T07:24:09.622Z,52.35
2022-08-07T07:24:56.688Z,53.41
2022-08-07T07:26:34.279Z,53.65
2022-08-07T07:27:35.630Z,54.73
2022-08-07T07:29:38.555Z,54.80
2022-08-07T07:30:37.863Z,54.96
2022-08-07T07:31:49.332Z,54.41
2022-08-07T07:32:55.604Z,53.90
2022-08-07T07:34:05.232Z,53.59
2022-08-07T07:35:12.034Z,53.02
2022-08-07T07:36:17.186Z,51.84
2022-08-07T07:37:44.407Z,52.49
2022-08-07T07:38:47.598Z,53.11
2022-08-07T07:39:55.619Z,53.51
2022-08-07T07:41:03.213Z,52.72
2022-08-07T07:42:14.018Z,52.88
2022-08-07T07:43:27.706Z,53.73
2022-08-07T07:44:49.668Z,54.05
2022-08-07T07:46:40.244Z,53.99
2022-08-07T07:47:23.771Z,54.11
2022-08-07T07:48:35.980Z,54.36
2022-08-07T07:50:35.014Z,53.90
2022-08-07T07:51:07.863Z,51.54
2022-08-07T07:52:13.737Z,52.24
2022-08-07T07:53:25.619Z,52.98
2022-08-07T07:54:31.025Z,53.01
2022-08-07T07:55:45.752Z,52.25
2022-08-07T07:56:59.982Z,51.82
2022-08-07T07:58:05.580Z,51.46
2022-08-07T07:59:11.004Z,51.59
2022-08-07T08:00:28.805Z,51.77
2022-08-07T08:02:03.857Z,51.00
2022-08-07T08:03:16.551Z,51.78
2022-08-07T08:04:36.320Z,50.84
2022-08-07T08:05:50.519Z,50.96
2022-08-07T08:07:00.730Z,50.06
2022-08-07T08:08:33.994Z,50.03
2022-08-07T08:09:52.525Z,50.83
2022-08-07T08:11:03.886Z,50.17
2022-08-07T08:12:08.643Z,50.79
2022-08-07T08:13:15.062Z,50.82
2022-08-07T08:14:24.274Z,50.71
2022-08-07T08:15:58.117Z,51.10
2022-08-07T08:17:56.706Z,50.96
2022-08-07T08:18:25.715Z,51.27
2022-08-07T08:20:18.222Z,51.22
2022-08-07T08:21:00.638Z,52.07
2022-08-07T08:22:32.692Z,52.16
2022-08-07T08:23:57.239Z,52.10
2022-08-07T08:25:41.830Z,51.30
2022-08-07T08:27:09.216Z,50.75
2022-08-07T08:28:24.124Z,50.17
2022-08-07T08:29:54.524Z,49.92
2022-08-07T08:31:01.687Z,50.06
2022-08-07T08:32:18.663Z,49.35
2022-08-07T08:33:33.086Z,49.12
2022-08-07T08:34:40.211Z,49.04
2022-08-07T08:35:50.617Z,48.97
2022-08-07T08:36:58.380Z,49.22
2022-08-07T08:38:04.901Z,49.17
2022-08-07T08:39:09.641Z,49.30
2022-08-07T08:40:32.627Z,49.43
2022-08-07T08:41:58.853Z,50.17
2022-08-07T08:43:13.010Z,49.88
2022-08-07T08:44:37.211Z,49.24
2022-08-07T08:46:06.842Z,49.33
2022-08-07T08:47:31.269Z,48.62
2022-08-07T08:49:19.058Z,49.62
2022-08-07T08:50:45.703Z,49.33
2022-08-07T08:52:13.766Z,49.45
2022-08-07T08:53:25.915Z,48.68
2022-08-07T08:54:55.987Z,48.88
2022-08-07T08:56:10.461Z,49.07
2022-08-07T08:57:38.040Z,49.36
2022-08-07T08:58:54.307Z,49.36
2022-08-07T09:00:05.408Z,49.51
2022-08-07T09:01:40.174Z,49.46
2022-08-07T09:02:58.808Z,49.58
2022-08-07T09:04:15.187Z,49.39
2022-08-07T09:05:37.705Z,49.37
2022-08-07T09:06:50.117Z,48.84
2022-08-07T09:08:11.666Z,48.64
2022-08-07T09:09:56.559Z,48.36
2022-08-07T09:11:13.975Z,48.70
2022-08-07T09:12:53.524Z,49.07
2022-08-07T09:14:13.459Z,49.07
2022-08-07T09:16:22.816Z,49.24
2022-08-07T09:17:28.004Z,49.67
2022-08-07T09:19:51.354Z,49.51
2022-08-07T09:21:13.925Z,49.12
2022-08-07T09:24:32.813Z,49.34
2022-08-07T09:25:00.365Z,49.15
2022-08-07T09:26:33.770Z,49.32
2022-08-07T09:28:00.782Z,49.60
2022-08-07T09:30:06.616Z,49.45
2022-08-07T09:33:57.820Z,48.20
2022-08-07T09:36:04.588Z,47.86
2022-08-07T09:41:14.491Z,47.87
2022-08-07T09:47:42.357Z,46.88
2022-08-07T09:50:35.681Z,46.40
2022-08-07T09:52:15.459Z,45.82
2022-08-07T09:53:16.476Z,46.21
2022-08-07T09:54:35.317Z,46.87
2022-08-07T09:56:03.762Z,46.67
2022-08-07T09:57:30.299Z,47.00
2022-08-07T09:58:48.769Z,47.04
2022-08-07T10:00:14.948Z,46.73
2022-08-07T10:01:53.164Z,46.88
2022-08-07T10:03:08.527Z,46.66
2022-08-07T10:05:12.387Z,47.30
2022-08-07T10:06:48.907Z,46.55
2022-08-07T10:08:02.316Z,46.78
2022-08-07T10:09:58.948Z,46.64
2022-08-07T10:12:01.661Z,46.24
2022-08-07T10:13:15.919Z,45.43
2022-08-07T10:14:54.167Z,45.20
2022-08-07T10:16:31.648Z,45.43
2022-08-07T10:18:16.836Z,45.14
2022-08-07T10:19:32.073Z,45.86
2022-08-07T10:21:00.129Z,45.07
2022-08-07T10:22:45.290Z,44.82
2022-08-07T10:24:11.008Z,44.47
2022-08-07T10:25:24.545Z,43.18
2022-08-07T10:26:53.119Z,44.01
2022-08-07T10:28:15.710Z,43.77
2022-08-07T10:29:51.715Z,43.51
2022-08-07T10:31:15.204Z,43.01
2022-08-07T10:32:59.671Z,44.13
2022-08-07T10:34:27.221Z,43.56
2022-08-07T10:36:10.885Z,43.51
2022-08-07T10:38:00.964Z,43.09
2022-08-07T10:39:41.660Z,43.50
2022-08-07T10:41:51.748Z,42.77
2022-08-07T10:43:34.733Z,43.01
2022-08-07T10:44:57.349Z,43.12
2022-08-07T10:46:15.916Z,42.91
2022-08-07T10:47:55.862Z,43.26
2022-08-07T10:49:16.296Z,42.01
2022-08-07T10:50:52.540Z,41.82
2022-08-07T10:52:13.667Z,43.08
2022-08-07T10:53:44.747Z,43.42
2022-08-07T10:55:01.502Z,41.68
2022-08-07T10:56:05.874Z,42.15
2022-08-07T10:57:33.897Z,41.67
2022-08-07T10:59:00.329Z,42.07
2022-08-07T11:00:08.836Z,41.35
2022-08-07T11:01:51.332Z,40.56
2022-08-07T11:03:14.385Z,41.03
2022-08-07T11:04:56.202Z,41.14
2022-08-07T11:06:22.123Z,41.35
2022-08-07T11:07:59.535Z,41.58
2022-08-07T11:10:09.642Z,41.88
2022-08-07T11:11:01.971Z,42.12
2022-08-07T11:12:14.287Z,40.13
2022-08-07T11:14:42.705Z,39.84
2022-08-07T11:15:09.578Z,39.96
2022-08-07T11:16:36.842Z,40.38
2022-08-07T11:18:12.511Z,40.86
2022-08-07T11:19:38.925Z,40.04
2022-08-07T11:20:50.000Z,38.96
2022-08-07T11:22:32.531Z,38.24
2022-08-07T11:23:59.635Z,38.93
2022-08-07T11:25:23.335Z,39.33
2022-08-07T11:26:50.836Z,39.26
2022-08-07T11:28:16.741Z,38.85
2022-08-07T11:29:43.006Z,39.22
2022-08-07T11:31:27.218Z,39.17
2022-08-07T11:32:46.302Z,40.07
2022-08-07T11:34:04.318Z,39.62
2022-08-07T11:35:11.170Z,39.59
2022-08-07T11:37:00.371Z,40.07
2022-08-07T11:38:50.701Z,39.18
2022-08-07T11:40:19.268Z,39.75
2022-08-07T11:41:31.115Z,40.32
2022-08-07T11:43:06.963Z,40.49
2022-08-07T11:44:32.958Z,39.91
2022-08-07T11:46:12.217Z,39.95
2022-08-07T11:47:39.011Z,39.07
2022-08-07T11:49:50.719Z,39.49
2022-08-07T11:51:03.213Z,39.35
2022-08-07T11:52:29.458Z,39.86
2022-08-07T11:54:00.373Z,39.35
2022-08-07T11:56:25.528Z,40.37
2022-08-07T11:57:50.972Z,40.91
2022-08-07T11:59:01.213Z,38.71
2022-08-07T12:00:28.700Z,38.52
2022-08-07T12:02:00.684Z,38.25
2022-08-07T12:03:05.381Z,38.58
2022-08-07T12:04:34.465Z,39.72
2022-08-07T12:06:37.637Z,39.80
2022-08-07T12:08:03.804Z,39.37
2022-08-07T12:09:25.191Z,38.61
2022-08-07T12:10:41.599Z,37.53
2022-08-07T12:12:10.540Z,37.86
2022-08-07T12:13:37.102Z,38.64
2022-08-07T12:15:01.721Z,37.90
2022-08-07T12:16:28.763Z,37.64
2022-08-07T12:17:59.630Z,37.06
2022-08-07T12:20:03.155Z,37.36
2022-08-07T12:22:36.156Z,37.42
2022-08-07T12:23:09.181Z,36.70
2022-08-07T12:24:37.447Z,37.05
2022-08-07T12:26:40.586Z,36.49
2022-08-07T12:28:09.286Z,36.79
2022-08-07T12:29:21.067Z,36.84
2022-08-07T12:30:46.896Z,37.57
2022-08-07T12:32:38.565Z,37.45
2022-08-07T12:34:01.174Z,38.48
2022-08-07T12:35:09.657Z,38.26
2022-08-07T12:36:16.938Z,38.22
2022-08-07T12:37:23.371Z,37.91
2022-08-07T12:38:39.343Z,36.71
2022-08-07T12:39:51.358Z,35.65
2022-08-07T12:40:57.812Z,35.87
2022-08-07T12:42:02.534Z,36.02
2022-08-07T12:43:09.841Z,36.51
2022-08-07T12:44:17.203Z,37.18
2022-08-07T12:45:26.456Z,37.10
2022-08-07T12:47:06.401Z,36.95
2022-08-07T12:48:41.567Z,37.45
2022-08-07T12:50:38.459Z,37.67
2022-08-07T12:51:51.316Z,37.81
2022-08-07T12:54:03.321Z,37.94
2022-08-07T12:55:41.226Z,38.80
2022-08-07T12:56:58.982Z,38.07
2022-08-07T12:58:03.926Z,37.85
2022-08-07T12:59:20.631Z,38.09
2022-08-07T13:00:50.023Z,36.76
2022-08-07T13:02:33.053Z,37.85
2022-08-07T13:03:59.303Z,38.75
2022-08-07T13:06:03.376Z,38.33
2022-08-07T13:07:00.471Z,38.84
2022-08-07T13:08:46.073Z,38.70
2022-08-07T13:10:20.905Z,37.54
2022-08-07T13:12:03.363Z,36.97
2022-08-07T13:13:48.535Z,37.16
2022-08-07T13:14:59.606Z,37.34
2022-08-07T13:16:27.803Z,38.17
2022-08-07T13:17:57.816Z,37.14
2022-08-07T13:19:34.909Z,37.35
2022-08-07T13:20:53.455Z,36.86
2022-08-07T13:22:19.829Z,36.85
2022-08-07T13:24:01.821Z,37.42
2022-08-07T13:25:54.206Z,38.40
2022-08-07T13:28:12.865Z,38.39
2022-08-07T13:29:16.110Z,39.41
2022-08-07T13:30:39.837Z,39.52
2022-08-07T13:31:57.693Z,39.05
2022-08-07T13:33:03.307Z,39.41
2022-08-07T13:34:33.034Z,39.78
2022-08-07T13:35:59.916Z,40.01
2022-08-07T13:37:23.526Z,39.04
2022-08-07T13:38:49.098Z,37.89
2022-08-07T13:40:35.126Z,37.18
2022-08-07T13:41:48.941Z,37.41
2022-08-07T13:42:54.974Z,38.17
2022-08-07T13:44:02.339Z,37.44
2022-08-07T13:46:07.163Z,37.14
2022-08-07T13:46:41.879Z,35.38
2022-08-07T13:48:06.370Z,35.29
2022-08-07T13:50:35.896Z,36.03
2022-08-07T13:50:44.959Z,37.03
2022-08-07T13:52:31.535Z,36.66
2022-08-07T13:53:59.430Z,36.55
2022-08-07T13:55:11.054Z,36.14
2022-08-07T13:56:36.105Z,36.18
2022-08-07T13:57:59.039Z,36.12
2022-08-07T13:59:30.586Z,36.34
2022-08-07T14:00:39.704Z,35.33
2022-08-07T14:02:12.661Z,35.68
2022-08-07T14:03:34.090Z,35.16
2022-08-07T14:05:01.997Z,34.99
2022-08-07T14:06:06.328Z,34.85
2022-08-07T14:07:11.867Z,34.61
2022-08-07T14:08:16.348Z,34.23
2022-08-07T14:10:15.632Z,34.08
2022-08-07T14:11:14.848Z,33.21
2022-08-07T14:12:30.346Z,33.29
2022-08-07T14:13:37.541Z,33.57
2022-08-07T14:15:40.520Z,33.27
2022-08-07T14:16:49.860Z,35.28
2022-08-07T14:18:23.733Z,36.31
2022-08-07T14:20:42.442Z,35.91
2022-08-07T14:22:00.541Z,37.02
2022-08-07T14:22:45.742Z,37.86
2022-08-07T14:24:00.220Z,37.96
2022-08-07T14:25:12.203Z,37.83
2022-08-07T14:26:28.020Z,38.56
2022-08-07T14:28:10.400Z,39.51
2022-08-07T14:30:04.881Z,40.13
2022-08-07T14:30:33.315Z,40.86
2022-08-07T14:31:43.239Z,41.08
2022-08-07T14:33:04.528Z,41.31
2022-08-07T14:34:10.079Z,40.98
2022-08-07T14:35:43.122Z,41.88
2022-08-07T14:36:55.935Z,42.10
2022-08-07T14:38:03.071Z,42.29
2022-08-07T14:40:17.435Z,42.63
2022-08-07T14:40:55.649Z,42.51
2022-08-07T14:42:20.640Z,42.60
2022-08-07T14:43:56.932Z,43.08
2022-08-07T14:44:59.570Z,43.62
2022-08-07T14:46:04.429Z,44.20
2022-08-07T14:47:14.664Z,43.97
2022-08-07T14:48:27.834Z,43.97
2022-08-07T14:51:15.722Z,45.39
2022-08-07T14:52:27.318Z,46.25
2022-08-07T14:54:05.667Z,45.70
2022-08-07T14:54:59.610Z,45.97
2022-08-07T14:57:58.780Z,46.41
2022-08-07T15:00:33.182Z,47.12
2022-08-07T15:01:42.838Z,47.75
2022-08-07T15:02:56.724Z,48.18
2022-08-07T15:04:06.033Z,48.04
2022-08-07T15:05:20.438Z,48.20
2022-08-07T15:06:47.555Z,48.37
2022-08-07T15:07:53.469Z,48.58
2022-08-07T15:10:35.087Z,49.22
2022-08-07T15:11:53.774Z,50.05
2022-08-07T15:13:25.276Z,49.90
2022-08-07T15:14:30.933Z,50.14
2022-08-07T15:15:57.924Z,50.61
2022-08-07T15:17:05.022Z,50.67
2022-08-07T15:20:32.692Z,51.22
2022-08-07T15:21:58.428Z,51.76
2022-08-07T15:25:16.104Z,52.78
2022-08-07T15:26:03.539Z,53.28
2022-08-07T15:27:11.533Z,53.06
2022-08-07T15:30:09.460Z,52.54
2022-08-07T15:31:12.286Z,52.90
2022-08-07T15:32:51.148Z,53.12
2022-08-07T15:36:00.929Z,53.23
2022-08-07T15:37:07.089Z,52.89
2022-08-07T15:38:30.289Z,53.25
2022-08-07T15:39:57.229Z,53.09
2022-08-07T15:42:42.475Z,53.26
2022-08-07T15:42:43.572Z,53.31
2022-08-07T15:44:12.626Z,53.40
2022-08-07T15:45:56.384Z,53.63
2022-08-07T15:47:09.067Z,53.45
2022-08-07T15:50:37.910Z,53.51
2022-08-07T15:53:07.681Z,53.16
2022-08-07T15:54:16.717Z,52.77
2022-08-07T15:55:21.114Z,52.35
2022-08-07T15:56:38.523Z,52.89
2022-08-07T15:57:51.502Z,52.75
2022-08-07T15:58:59.346Z,52.43
2022-08-07T16:00:06.541Z,52.81
2022-08-07T16:01:22.761Z,53.20
2022-08-07T16:02:46.554Z,53.32
2022-08-07T16:03:54.412Z,53.37
2022-08-07T16:05:15.011Z,53.49
2022-08-07T16:06:32.888Z,53.12
2022-08-07T16:08:30.285Z,53.32
2022-08-07T16:09:44.814Z,53.42
2022-08-07T16:10:55.637Z,53.50
2022-08-07T16:12:06.340Z,53.44
2022-08-07T16:14:07.762Z,53.52
2022-08-07T16:15:55.443Z,53.69
2022-08-07T16:17:15.156Z,53.58
2022-08-07T16:18:50.380Z,53.40
2022-08-07T16:20:33.799Z,53.43
2022-08-07T16:21:56.916Z,53.67
2022-08-07T16:23:53.475Z,53.95
2022-08-07T16:24:57.065Z,54.28
2022-08-07T16:26:08.614Z,54.20
2022-08-07T16:27:40.407Z,54.16
2022-08-07T16:30:06.258Z,54.15
2022-08-07T16:30:31.862Z,54.05
2022-08-07T16:31:58.245Z,54.12
2022-08-07T16:34:02.367Z,54.11
2022-08-07T16:34:52.716Z,54.10
2022-08-07T16:36:31.477Z,54.20
2022-08-07T16:38:04.710Z,54.36
2022-08-07T16:40:05.595Z,54.41
2022-08-07T16:41:09.032Z,54.15
2022-08-07T16:42:15.440Z,54.19
2022-08-07T16:44:02.340Z,54.44
2022-08-07T16:46:34.748Z,54.54
2022-08-07T16:47:12.081Z,54.21
2022-08-07T16:48:28.531Z,54.19
2022-08-07T16:50:34.998Z,54.23
2022-08-07T16:52:50.841Z,54.11
2022-08-07T16:54:02.837Z,53.89
2022-08-07T16:55:15.158Z,53.98
2022-08-07T16:56:53.507Z,53.89
2022-08-07T16:58:02.061Z,54.10
2022-08-07T16:59:44.183Z,53.90
2022-08-07T17:01:41.300Z,53.64
2022-08-07T17:03:06.592Z,53.96
2022-08-07T17:04:15.708Z,54.10
2022-08-07T17:06:29.000Z,54.38
2022-08-07T17:07:55.507Z,54.24
2022-08-07T17:09:14.290Z,54.53
2022-08-07T17:10:55.612Z,54.88
2022-08-07T17:12:35.139Z,54.92
2022-08-07T17:14:18.266Z,54.84
2022-08-07T17:15:20.679Z,54.78
2022-08-07T17:16:24.997Z,54.46
2022-08-07T17:17:46.050Z,54.52
2022-08-07T17:19:01.520Z,54.65
2022-08-07T17:20:20.834Z,54.88
2022-08-07T17:21:28.963Z,54.87
2022-08-07T17:23:16.989Z,55.17
2022-08-07T17:24:42.245Z,55.42
2022-08-07T17:26:31.356Z,55.67
2022-08-07T17:27:51.603Z,55.52
2022-08-07T17:28:57.969Z,55.62
2022-08-07T17:30:14.246Z,55.62
2022-08-07T17:31:34.606Z,55.47